Latest Weather Observations for Albany Airport

IDW60801

Issued at 4:05 pm WST Thursday 24 July 2014 (issued every 30 minutes, with the page automatically refreshed every 10 minutes)

About weather observations | Map of weather stations | Latest weather observations for WA | Other Formats
Station Details ID: 009999 Name: ALBANY AIRPORT Lat: -34.94 Lon: 117.82 Height: 68.4 m
Data from the previous 72 hours. | See also: Recent months at Albany Airport
Date/Time
WST
Temp
°C
App
Temp
°C
Dew
Point
Rel
Hum
%
Delta-T
°C
Wind Press
QNH
hPa
Press
MSL
hPa
Rain
since 9 am
mm
Dir
 
Spd
km/h
Gust
km/h
Spd
kts
Gust
kts
24/04:00pm 15.6 11.7 7.3 57 4.1 W 17 24 9 13 1018.4 - 0.0
24/03:30pm 15.1 11.4 7.9 62 3.6 WSW 17 22 9 12 1018.3 - 0.0
24/03:00pm 15.5 11.2 7.2 57 4.1 WSW 19 28 10 15 1018.0 1018.2 0.0
24/02:30pm 16.2 12.2 6.6 53 4.7 WSW 17 22 9 12 1018.1 - 0.0
24/02:00pm 15.8 10.7 6.1 52 4.7 W 22 32 12 17 1018.1 - 0.0
24/01:30pm 15.3 10.7 6.7 56 4.2 WSW 20 33 11 18 1018.6 - 0.0
24/01:00pm 15.2 9.5 6.6 56 4.2 W 26 35 14 19 1018.7 - 0.0
24/12:30pm 15.4 9.6 6.3 54 4.4 W 26 33 14 18 1018.7 - 0.0
24/12:00pm 15.7 12.4 7.9 59 3.9 W 15 26 8 14 1018.9 1019.1 0.0
24/11:30am 15.6 11.7 7.3 57 4.1 W 17 22 9 12 1019.2 - 0.0
24/11:00am 15.1 10.9 8.1 63 3.5 W 20 26 11 14 1019.2 - 0.0
24/10:30am 14.8 11.5 8.2 64 3.3 W 15 20 8 11 1019.1 - 0.0
24/10:00am 13.6 10.1 8.6 72 2.5 WNW 17 20 9 11 1019.2 - 0.0
24/09:30am 12.6 9.8 8.6 76 2.0 WNW 13 19 7 10 1019.2 - 0.0
24/09:00am 11.2 8.2 7.9 80 1.6 NW 13 15 7 8 1018.9 1019.1 0.8
24/08:30am 9.8 7.2 7.9 88 0.9 NW 11 15 6 8 1018.6 - 0.8
24/08:00am 8.4 5.3 7.3 93 0.5 NW 13 13 7 7 1018.2 - 0.8
24/07:30am 7.6 4.3 6.5 93 0.5 NW 13 15 7 8 1017.9 - 0.8
24/07:00am 8.1 5.3 7.0 93 0.5 W 11 13 6 7 1017.7 - 0.8
24/06:30am 9.3 5.6 7.8 90 0.7 WNW 17 19 9 10 1017.5 - 0.8
24/06:00am 9.4 6.1 7.9 90 0.7 WNW 15 19 8 10 1017.1 1017.3 0.8
24/05:30am 9.8 7.0 8.4 91 0.7 W 13 17 7 9 1016.9 - 0.8
24/05:00am 10.1 6.9 8.5 90 0.8 WNW 15 19 8 10 1016.8 - 0.8
24/04:30am 10.1 7.3 8.7 91 0.7 W 13 17 7 9 1016.4 - 0.8
24/04:00am 10.2 6.8 9.0 92 0.6 WNW 17 20 9 11 1016.4 - 0.8
24/03:30am 10.2 7.1 9.0 92 0.6 WNW 15 20 8 11 1016.2 - 0.6
24/03:00am 10.5 7.1 9.3 92 0.6 WNW 17 20 9 11 1016.1 1016.3 0.6
24/02:30am 9.9 7.2 8.9 93 0.5 WNW 13 17 7 9 1016.0 - 0.6
24/02:00am 9.8 6.7 9.0 95 0.4 WNW 15 17 8 9 1016.0 - 0.4
24/01:30am 10.6 7.7 9.6 93 0.5 WNW 15 20 8 11 1015.7 - 0.4
24/01:00am 10.3 6.6 9.5 95 0.4 NW 19 22 10 12 1015.4 - 0.4
24/12:30am 10.0 6.7 9.4 96 0.3 NW 17 20 9 11 1015.6 - 0.4
24/12:00am 10.5 6.8 9.5 93 0.5 WNW 19 24 10 13 1015.8 1016.0 0.4
 
Date/Time
WST
Temp
°C
App
Temp
°C
Dew
Point
Rel
Hum
%
Delta-T
°C
Wind Press
QNH
hPa
Press
MSL
hPa
Rain
since 9 am
mm
Dir
 
Spd
km/h
Gust
km/h
Spd
kts
Gust
kts
23/11:30pm 10.9 5.9 9.7 92 0.6 WNW 26 32 14 17 1015.6 - 0.4
23/11:00pm 11.0 6.3 9.4 90 0.8 WNW 24 30 13 16 1015.7 - 0.4
23/10:40pm 11.0 6.0 9.6 91 0.7 WNW 26 37 14 20 1015.9 - 0.4
23/10:30pm 11.1 5.6 9.3 89 0.9 WNW 28 39 15 21 1016.0 - 0.4
23/10:27pm 11.2 5.7 9.2 87 1.0 WNW 28 37 15 20 1015.9 - 0.4
23/10:00pm 11.6 6.2 8.1 79 1.7 NW 26 35 14 19 1015.4 - 0.2
23/09:30pm 11.5 6.8 7.8 78 1.8 NNW 22 32 12 17 1015.2 - 0.2
23/09:00pm 11.4 7.1 7.7 78 1.8 NNW 20 26 11 14 1015.7 1015.9 0.2
23/08:30pm 11.2 7.4 7.7 79 1.7 NNW 17 26 9 14 1016.0 - 0.2
23/08:00pm 11.1 7.4 8.0 81 1.5 NNW 17 20 9 11 1016.1 - 0.2
23/07:30pm 11.4 7.7 8.1 80 1.6 NNW 17 22 9 12 1016.6 - 0.2
23/07:00pm 11.4 8.1 7.9 79 1.7 NNW 15 19 8 10 1016.7 - 0.2
23/06:30pm 11.5 8.6 8.2 80 1.6 NW 13 15 7 8 1017.0 - 0.2
23/06:00pm 11.1 8.7 8.5 84 1.3 NW 11 15 6 8 1017.0 1017.2 0.2
23/05:30pm 10.6 8.6 8.6 87 1.0 NNW 9 9 5 5 1016.7 - 0.2
23/05:00pm 11.1 9.2 8.9 86 1.1 NW 9 11 5 6 1016.7 - 0.2
23/04:30pm 13.0 10.4 9.3 78 1.9 W 13 20 7 11 1016.9 - 0.2
23/04:00pm 13.3 10.1 8.3 72 2.5 WNW 15 19 8 10 1016.7 - 0.2
23/03:30pm 12.7 9.2 8.9 78 1.9 W 17 20 9 11 1016.9 - 0.2
23/03:00pm 13.3 8.6 7.8 69 2.7 W 22 33 12 18 1016.8 1017.0 0.2
23/02:30pm 14.1 9.1 6.4 60 3.7 WNW 22 28 12 15 1016.7 - 0.2
23/02:00pm 15.1 9.3 6.2 55 4.3 WNW 26 33 14 18 1016.7 - 0.2
23/01:30pm 14.6 9.3 6.8 59 3.8 WNW 24 32 13 17 1016.9 - 0.2
23/01:00pm 14.2 8.1 6.8 61 3.6 WNW 28 37 15 20 1017.4 - 0.2
23/12:30pm 13.6 8.3 7.0 64 3.2 WNW 24 33 13 18 1017.8 - 0.2
23/12:00pm 13.6 8.2 6.5 62 3.4 WNW 24 32 13 17 1018.3 1018.5 0.2
23/11:30am 13.6 8.7 6.8 63 3.3 WNW 22 30 12 16 1018.7 - 0.2
23/11:00am 13.4 8.4 7.9 69 2.7 WNW 24 30 13 16 1019.0 - 0.2
23/10:30am 12.2 7.8 7.2 71 2.4 WNW 20 28 11 15 1019.4 - 0.0
23/10:00am 11.1 8.2 8.2 82 1.4 WNW 13 17 7 9 1019.5 - 0.0
23/09:30am 11.0 8.3 9.0 87 1.0 NW 13 17 7 9 1019.4 - 0.0
23/09:00am 10.4 7.8 9.2 92 0.6 NW 13 17 7 9 1019.5 1019.7 8.8
23/08:30am 10.2 8.1 9.8 97 0.2 W 11 13 6 7 1019.4 - 8.8
23/08:20am 9.9 7.3 9.3 96 0.3 W 13 19 7 10 1019.4 - 8.8
23/08:00am 9.8 6.5 9.6 99 0.1 WNW 17 22 9 12 1019.4 - 8.8
23/07:40am 9.9 6.6 9.5 97 0.2 WNW 17 20 9 11 1019.3 - 8.4
23/07:30am 9.9 7.0 9.7 99 0.1 WNW 15 17 8 9 1019.3 - 8.4
23/07:16am 9.9 6.6 9.5 97 0.2 WNW 17 20 9 11 1019.1 - 8.4
23/07:00am 9.8 6.8 9.4 97 0.2 WNW 15 19 8 10 1018.9 - 8.4
23/06:30am 9.8 7.6 9.4 97 0.2 NW 11 15 6 8 1018.8 - 8.4
23/06:00am 9.7 7.5 9.3 97 0.2 NW 11 15 6 8 1018.5 1018.7 8.2
23/05:30am 9.7 7.9 9.3 97 0.2 WNW 9 11 5 6 1018.4 - 8.2
23/05:13am 9.6 7.7 9.2 97 0.2 WNW 9 13 5 7 1018.3 - 8.2
23/05:00am 9.6 8.1 9.2 97 0.2 NW 7 9 4 5 1018.3 - 8.2
23/04:53am 9.5 7.6 9.1 97 0.2 NW 9 11 5 6 1018.4 - 8.0
23/04:39am 9.6 7.3 9.0 96 0.3 WNW 11 13 6 7 1018.5 - 8.0
23/04:30am 9.7 7.4 9.1 96 0.3 W 11 17 6 9 1018.5 - 8.0
23/04:22am 9.4 7.1 9.0 97 0.2 WNW 11 15 6 8 1018.5 - 8.0
23/04:00am 9.1 6.7 8.5 96 0.3 WNW 11 13 6 7 1018.4 - 7.6
23/03:30am 9.1 6.7 8.5 96 0.3 NW 11 13 6 7 1018.4 - 7.6
23/03:00am 9.2 7.1 8.4 95 0.4 WNW 9 13 5 7 1018.3 1018.5 7.6
23/02:30am 9.5 7.5 8.7 95 0.4 WNW 9 13 5 7 1018.4 - 7.4
23/02:00am 9.6 8.0 8.6 93 0.5 W 7 9 4 5 1018.4 - 7.4
23/01:30am 10.2 7.9 9.0 92 0.6 W 11 13 6 7 1018.2 - 7.4
23/01:00am 10.0 7.7 9.0 93 0.5 WSW 11 11 6 6 1018.2 - 7.4
23/12:30am 10.4 7.7 9.0 91 0.7 SW 13 17 7 9 1018.0 - 7.4
23/12:00am 10.9 8.4 9.7 92 0.6 WSW 13 17 7 9 1018.1 1018.3 7.4
 
Date/Time
WST
Temp
°C
App
Temp
°C
Dew
Point
Rel
Hum
%
Delta-T
°C
Wind Press
QNH
hPa
Press
MSL
hPa
Rain
since 9 am
mm
Dir
 
Spd
km/h
Gust
km/h
Spd
kts
Gust
kts
22/11:36pm 11.2 8.0 9.8 91 0.7 SW 17 24 9 13 1018.0 - 7.4
22/11:30pm 11.2 7.6 9.8 91 0.7 SW 19 30 10 16 1018.0 - 7.4
22/11:21pm 11.2 7.0 9.8 91 0.7 SW 22 35 12 19 1018.0 - 7.2
22/11:00pm 11.3 6.8 9.9 91 0.7 SW 24 32 13 17 1017.9 - 7.2
22/10:30pm 11.4 7.2 9.6 89 0.9 SW 22 32 12 17 1017.7 - 7.0
22/10:03pm 11.6 7.9 10.2 91 0.7 SSW 20 32 11 17 1017.6 - 7.0
22/10:00pm 11.5 7.8 10.3 92 0.6 SSW 20 32 11 17 1017.5 - 7.0
22/09:49pm 11.4 6.6 10.4 94 0.5 SSW 26 37 14 20 1017.5 - 7.0
22/09:47pm 11.4 7.0 10.4 94 0.5 SW 24 37 13 20 1017.5 - 7.0
22/09:30pm 11.5 7.8 10.3 92 0.6 SW 20 35 11 19 1017.3 - 6.8
22/09:00pm 11.7 7.2 10.1 90 0.8 SW 24 33 13 18 1017.0 1017.2 6.4
22/08:30pm 11.8 6.9 10.0 89 0.9 SSW 26 43 14 23 1016.7 - 6.2
22/08:23pm 11.7 7.7 10.3 91 0.7 SSW 22 32 12 17 1016.6 - 6.2
22/08:09pm 11.8 8.2 10.6 92 0.6 SSW 20 28 11 15 1016.4 - 6.2
22/08:04pm 11.8 8.2 10.4 91 0.7 SSW 20 30 11 16 1016.4 - 6.2
22/08:00pm 11.8 7.7 10.2 90 0.8 SSW 22 30 12 16 1016.3 - 5.4
22/07:30pm 11.6 8.0 10.0 90 0.8 SW 19 24 10 13 1016.0 - 5.4
22/07:00pm 10.7 7.8 9.7 93 0.5 WSW 15 24 8 13 1015.8 - 5.4
22/06:30pm 10.2 7.5 8.8 91 0.7 W 13 19 7 10 1015.3 - 5.2
22/06:00pm 11.3 8.6 9.1 86 1.1 WSW 13 15 7 8 1014.8 1015.0 5.0
22/05:30pm 11.6 9.1 9.6 87 1.0 WSW 13 15 7 8 1014.3 - 5.0
22/05:00pm 12.4 9.6 9.9 85 1.3 WSW 15 20 8 11 1013.8 - 5.0
22/04:30pm 13.1 10.3 11.2 88 1.0 WSW 17 22 9 12 1013.3 - 5.0
22/04:00pm 13.1 10.4 11.8 92 0.7 W 17 20 9 11 1012.9 - 5.0
22/03:38pm 12.6 9.8 11.3 92 0.7 W 17 22 9 12 1012.8 - 4.6
22/03:30pm 12.4 9.1 10.9 90 0.8 W 19 30 10 16 1012.7 - 4.6
22/03:00pm 12.5 8.5 10.6 88 1.0 W 22 30 12 16 1012.5 1012.6 2.2
22/02:59pm 12.6 8.6 10.5 87 1.1 W 22 32 12 17 1012.4 - 1.4
22/02:30pm 13.9 9.1 10.3 79 1.9 W 26 35 14 19 1011.7 - 0.2
22/02:00pm 15.7 10.5 8.9 64 3.5 WNW 26 33 14 18 1011.0 - 0.0
22/01:30pm 15.8 11.6 8.3 61 3.8 W 20 28 11 15 1010.8 - 0.0
22/01:00pm 15.9 11.1 8.9 63 3.6 WNW 24 33 13 18 1010.9 - 0.0
22/12:30pm 15.3 10.6 9.3 67 3.1 WNW 24 32 13 17 1011.2 - 0.0
22/12:00pm 15.4 11.1 9.4 67 3.1 WNW 22 32 12 17 1011.7 1011.8 0.0
22/11:30am 14.6 9.9 9.1 69 2.8 WNW 24 30 13 16 1012.1 - 0.0
22/11:00am 13.7 9.8 9.4 75 2.2 WNW 20 28 11 15 1012.3 - 0.0
22/10:30am 12.5 7.8 9.1 80 1.7 NW 24 30 13 16 1012.4 - 0.0
22/10:00am 11.1 7.6 8.9 86 1.1 WNW 17 20 9 11 1012.6 - 0.0
22/09:30am 10.8 6.7 8.8 87 1.0 WNW 20 26 11 14 1012.7 - 0.0
22/09:00am 10.4 6.9 8.8 90 0.8 WNW 17 20 9 11 1012.6 1012.7 1.2
22/08:30am 9.5 5.9 8.5 93 0.5 WNW 17 20 9 11 1012.0 - 1.2
22/08:00am 9.2 6.3 8.2 93 0.5 NNW 13 15 7 8 1011.8 - 1.2
22/07:30am 9.0 6.2 8.4 96 0.3 NW 13 17 7 9 1011.8 - 1.2
22/07:00am 8.9 6.0 8.1 95 0.4 NW 13 17 7 9 1011.6 - 1.2
22/06:30am 8.8 6.0 8.4 97 0.2 NNW 13 17 7 9 1011.3 - 1.2
22/06:00am 9.2 6.8 8.8 97 0.2 NW 11 13 6 7 1011.1 1011.3 1.2
22/05:30am 9.5 7.9 8.9 96 0.3 NNW 7 11 4 6 1010.7 - 1.2
22/05:00am 9.6 7.3 9.0 96 0.3 N 11 17 6 9 1010.7 - 1.2
22/04:30am 9.7 6.6 8.9 95 0.4 NNW 15 20 8 11 1010.8 - 1.0
22/04:00am 9.8 6.7 9.0 95 0.4 NW 15 19 8 10 1010.6 - 0.6
22/03:30am 10.0 7.0 9.2 95 0.4 NW 15 20 8 11 1010.6 - 0.4
22/03:00am 10.3 7.7 9.3 93 0.5 NW 13 17 7 9 1010.8 1011.0 0.4
22/02:30am 10.6 7.6 9.4 92 0.6 WNW 15 19 8 10 1010.7 - 0.4
22/02:00am 10.9 8.7 9.5 91 0.7 WNW 11 17 6 9 1010.6 - 0.4
22/01:30am 11.0 8.9 9.6 91 0.7 NNW 11 13 6 7 1010.6 - 0.4
22/01:00am 11.1 8.5 9.5 90 0.8 NNW 13 17 7 9 1010.4 - 0.4
22/12:30am 11.2 9.1 9.6 90 0.8 NW 11 17 6 9 1010.4 - 0.4
22/12:00am 11.5 9.5 10.3 92 0.6 NNW 11 15 6 8 1010.8 1011.0 0.4
 
Date/Time
WST
Temp
°C
App
Temp
°C
Dew
Point
Rel
Hum
%
Delta-T
°C
Wind Press
QNH
hPa
Press
MSL
hPa
Rain
since 9 am
mm
Dir
 
Spd
km/h
Gust
km/h
Spd
kts
Gust
kts
21/11:30pm 11.9 9.3 10.6 92 0.7 NNW 15 20 8 11 1011.0 - 0.4
21/11:00pm 12.2 9.0 10.1 87 1.1 NNW 17 22 9 12 1011.0 - 0.2
21/10:30pm 11.5 9.1 9.9 90 0.8 N 13 15 7 8 1010.8 - 0.2
21/10:00pm 10.8 8.7 9.6 92 0.6 N 11 13 6 7 1011.0 - 0.2
21/09:30pm 10.2 8.0 9.2 93 0.5 N 11 15 6 8 1011.1 - 0.2
21/09:00pm 11.5 8.7 10.1 91 0.7 NNE 15 19 8 10 1011.2 1011.4 0.2
21/08:30pm 12.4 9.0 10.7 89 0.9 N 19 22 10 12 1011.2 - 0.2
21/08:00pm 12.5 9.2 10.8 89 0.9 N 19 22 10 12 1011.6 - 0.2
21/07:30pm 12.6 9.1 10.9 89 0.9 N 20 28 11 15 1012.0 - 0.2
21/07:00pm 13.1 9.5 10.0 81 1.6 N 19 26 10 14 1011.8 - 0.0
21/06:30pm 13.2 9.3 9.3 77 2.0 N 20 28 11 15 1011.4 - 0.0
21/06:00pm 14.3 9.4 8.6 68 2.9 N 24 39 13 21 1011.3 1011.5 0.0
21/05:30pm 14.5 10.9 8.4 67 3.1 N 17 22 9 12 1011.1 - 0.0
21/05:00pm 14.8 11.2 8.5 66 3.2 N 17 22 9 12 1011.1 - 0.0
21/04:30pm 15.4 11.3 7.8 60 3.8 N 19 26 10 14 1011.0 - 0.0

Other Formats:

Comma delimited format used in spreadsheet applications
http://www.bom.gov.au/fwo/IDW60801/IDW60801.94802.axf

JavaScript Object Notation format (JSON) in row-major order
http://www.bom.gov.au/fwo/IDW60801/IDW60801.94802.json